Time;durP1;ratioP1;P1;durP2;ratioP2;P2;SDS_P1;SDS_P2;PMS_P1;PMS_P2;Temp;Humidity;BMP_temperature;BMP_pressure;BME280_temperature;BME280_humidity;BME280_pressure;Samples;Min_cycle;Max_cycle;Signal;HPM_P1;HPM_P2
2023/07/25 00:01:40;;;;;;;7.03;4.60;;;18.00;99.90;;;;;;5072845;28;20047;-55
2023/07/25 00:04:26;;;;;;;8.55;4.80;;;18.00;99.90;;;;;;5073289;28;20029;-50
2023/07/25 00:07:12;;;;;;;8.27;5.15;;;18.10;99.90;;;;;;5072524;28;20070;-55
2023/07/25 00:09:58;;;;;;;8.48;4.47;;;18.00;99.90;;;;;;5072505;28;20029;-49
2023/07/25 00:12:44;;;;;;;5.90;4.53;;;18.00;99.90;;;;;;5073134;28;20068;-54
2023/07/25 00:15:30;;;;;;;11.23;5.35;;;17.90;99.90;;;;;;5073536;28;20102;-53
2023/07/25 00:18:16;;;;;;;10.48;4.80;;;17.90;99.90;;;;;;5059262;28;20029;-55
2023/07/25 00:21:02;;;;;;;8.10;5.03;;;18.10;99.90;;;;;;5073354;28;20537;-55
2023/07/25 00:23:48;;;;;;;9.80;4.80;;;18.20;99.90;;;;;;5073404;28;20078;-55
2023/07/25 00:26:34;;;;;;;8.65;4.80;;;18.20;99.90;;;;;;5072956;28;20036;-55
2023/07/25 00:29:20;;;;;;;7.65;5.03;;;18.20;99.90;;;;;;5071492;28;20041;-56
2023/07/25 00:32:07;;;;;;;8.60;5.05;;;18.00;99.90;;;;;;5072798;28;20020;-54
2023/07/25 00:34:53;;;;;;;7.25;4.97;;;17.90;99.90;;;;;;5070875;28;20020;-54
2023/07/25 00:37:42;;;;;;;9.73;4.88;;;18.00;99.90;;;;;;5071265;28;20035;-52
2023/07/25 00:40:28;;;;;;;8.25;5.05;;;18.10;99.90;;;;;;5073111;28;20028;-50
2023/07/25 00:43:14;;;;;;;8.35;5.03;;;18.00;99.90;;;;;;5073205;28;20416;-52
2023/07/25 00:45:59;;;;;;;10.00;5.07;;;18.00;99.90;;;;;;5072432;28;20125;-54
2023/07/25 00:48:45;;;;;;;9.73;4.68;;;18.00;99.90;;;;;;5071765;28;20037;-57
2023/07/25 00:51:32;;;;;;;9.05;4.95;;;17.90;99.90;;;;;;5071203;28;20082;-53
2023/07/25 00:54:18;;;;;;;10.75;5.22;;;17.70;99.90;;;;;;5070982;28;20108;-53
2023/07/25 00:57:05;;;;;;;7.20;5.20;;;17.80;99.90;;;;;;5070403;28;20047;-48
2023/07/25 00:59:51;;;;;;;9.27;4.82;;;18.00;99.90;;;;;;5070473;28;20034;-55
2023/07/25 01:02:37;;;;;;;9.18;5.30;;;18.00;99.90;;;;;;5070520;28;20024;-51
2023/07/25 01:05:24;;;;;;;9.68;5.47;;;18.00;99.90;;;;;;5070767;28;20650;-49
2023/07/25 01:08:10;;;;;;;6.90;5.00;;;18.00;99.90;;;;;;5070179;28;20059;-50
2023/07/25 01:10:56;;;;;;;8.63;5.28;;;17.80;99.90;;;;;;5071079;28;20033;-50
2023/07/25 01:13:42;;;;;;;9.50;5.38;;;17.80;99.90;;;;;;5071305;28;20028;-54
2023/07/25 01:16:29;;;;;;;11.00;5.50;;;17.70;99.90;;;;;;5070912;28;20035;-49
2023/07/25 01:19:17;;;;;;;6.75;4.78;;;17.70;99.90;;;;;;5057069;28;20028;-49
2023/07/25 01:22:04;;;;;;;12.85;5.50;;;17.80;99.90;;;;;;5072271;28;20032;-57
2023/07/25 01:24:50;;;;;;;7.15;5.80;;;17.80;99.90;;;;;;5064487;28;20029;-55
2023/07/25 01:27:36;;;;;;;9.45;5.43;;;17.60;99.90;;;;;;5062845;28;20433;-56
2023/07/25 01:30:21;;;;;;;11.85;5.07;;;17.70;99.90;;;;;;5061958;28;20557;-56
2023/07/25 01:33:07;;;;;;;9.38;5.38;;;17.80;99.90;;;;;;5075758;28;20024;-58
2023/07/25 01:35:53;;;;;;;8.90;5.13;;;17.80;99.90;;;;;;5072635;28;20040;-58
2023/07/25 01:38:39;;;;;;;11.48;5.53;;;17.80;99.90;;;;;;5072540;28;20111;-58
2023/07/25 01:41:25;;;;;;;10.43;5.47;;;17.80;99.90;;;;;;5072419;28;20032;-56
2023/07/25 01:44:12;;;;;;;6.30;5.05;;;17.80;99.90;;;;;;5072295;28;20029;-58
2023/07/25 01:46:58;;;;;;;12.50;5.40;;;17.90;99.90;;;;;;5071974;28;20029;-58
2023/07/25 01:49:44;;;;;;;9.43;5.15;;;17.80;99.90;;;;;;5072336;28;20033;-49
2023/07/25 01:52:31;;;;;;;11.45;5.10;;;17.80;99.90;;;;;;5072423;28;20103;-52
2023/07/25 01:55:17;;;;;;;10.25;5.47;;;17.80;99.90;;;;;;5073175;28;20021;-51
2023/07/25 01:58:03;;;;;;;9.52;5.22;;;17.70;99.90;;;;;;5072301;28;20108;-51
2023/07/25 02:00:57;;;;;;;6.57;4.97;;;17.70;99.90;;;;;;5072144;28;20051;-52
2023/07/25 02:03:43;;;;;;;9.85;5.63;;;17.70;99.90;;;;;;5072578;28;20386;-58
2023/07/25 02:06:29;;;;;;;8.23;5.32;;;17.80;99.90;;;;;;5073326;28;20024;-54
2023/07/25 02:09:15;;;;;;;8.52;5.20;;;17.60;99.90;;;;;;5072034;28;20508;-55
2023/07/25 02:12:01;;;;;;;8.77;5.70;;;17.60;99.90;;;;;;5071301;28;20121;-53
2023/07/25 02:14:47;;;;;;;9.77;5.20;;;17.70;99.90;;;;;;5071814;28;20031;-50
2023/07/25 02:17:33;;;;;;;8.52;5.43;;;17.70;99.90;;;;;;5071386;28;20032;-53
2023/07/25 02:20:21;;;;;;;7.72;5.57;;;17.80;99.90;;;;;;5071834;28;20036;-53
2023/07/25 02:23:06;;;;;;;11.38;5.80;;;17.70;99.90;;;;;;5070786;28;20150;-51
2023/07/25 02:25:53;;;;;;;15.00;6.60;;;17.80;99.90;;;;;;5072371;28;20505;-51
2023/07/25 02:28:39;;;;;;;10.32;6.60;;;17.80;99.90;;;;;;5055653;28;20098;-50
2023/07/25 02:31:25;;;;;;;9.70;6.43;;;17.70;99.90;;;;;;5070865;28;20059;-53
2023/07/25 02:34:12;;;;;;;8.25;5.90;;;17.60;99.90;;;;;;5071065;28;20497;-50
2023/07/25 02:36:58;;;;;;;7.88;6.05;;;17.50;99.90;;;;;;5070778;28;20029;-53
2023/07/25 02:39:44;;;;;;;7.35;5.82;;;17.50;99.90;;;;;;5072134;28;20031;-52
2023/07/25 02:42:30;;;;;;;10.77;6.40;;;17.50;99.90;;;;;;5072006;28;20111;-47
2023/07/25 02:45:16;;;;;;;9.18;5.90;;;17.60;99.90;;;;;;5072308;28;20033;-49
2023/07/25 02:48:01;;;;;;;11.45;6.47;;;17.70;99.90;;;;;;5071786;28;20055;-51
2023/07/25 02:50:47;;;;;;;15.35;7.63;;;17.70;99.90;;;;;;5056110;28;20032;-53
2023/07/25 02:53:33;;;;;;;11.80;7.35;;;17.70;99.90;;;;;;5071156;28;20113;-49
2023/07/25 02:56:21;;;;;;;10.93;6.88;;;17.60;99.90;;;;;;5071728;28;20488;-53
2023/07/25 02:59:07;;;;;;;10.27;7.30;;;17.60;99.90;;;;;;5071828;28;20054;-54
2023/07/25 03:01:53;;;;;;;14.48;7.20;;;17.70;99.90;;;;;;5071946;28;20032;-53
2023/07/25 03:04:39;;;;;;;11.18;7.45;;;17.60;99.90;;;;;;5070756;28;20115;-53
2023/07/25 03:07:25;;;;;;;14.85;8.48;;;17.70;99.90;;;;;;5070757;28;20032;-53
2023/07/25 03:10:11;;;;;;;15.07;8.05;;;17.60;99.90;;;;;;5071677;28;20035;-52
2023/07/25 03:12:57;;;;;;;14.15;8.68;;;17.50;99.90;;;;;;5070843;28;20024;-56
2023/07/25 03:15:43;;;;;;;12.68;7.57;;;17.50;99.90;;;;;;5071802;28;20021;-53
2023/07/25 03:18:29;;;;;;;14.85;7.80;;;17.60;99.90;;;;;;5071408;28;20066;-55
2023/07/25 03:21:15;;;;;;;13.20;7.60;;;17.60;99.90;;;;;;5070481;28;20036;-57
2023/07/25 03:24:01;;;;;;;9.95;7.13;;;17.60;99.90;;;;;;5074401;28;20028;-51
2023/07/25 03:26:47;;;;;;;13.13;7.25;;;17.60;99.90;;;;;;5059712;28;20027;-56
2023/07/25 03:29:33;;;;;;;9.38;6.18;;;17.60;99.90;;;;;;5075410;28;20044;-57
2023/07/25 03:32:19;;;;;;;5.40;4.75;;;17.50;99.90;;;;;;5076179;28;20472;-56
2023/07/25 03:35:06;;;;;;;7.70;4.38;;;17.50;99.90;;;;;;5076127;28;20023;-55
2023/07/25 03:37:52;;;;;;;4.22;3.78;;;17.40;99.90;;;;;;5074479;28;20029;-51
2023/07/25 03:40:38;;;;;;;4.80;3.70;;;17.40;99.90;;;;;;5075433;28;20028;-56
2023/07/25 03:43:24;;;;;;;5.28;4.03;;;17.40;99.90;;;;;;5075225;28;20115;-52
2023/07/25 03:46:10;;;;;;;5.97;3.85;;;17.20;99.90;;;;;;5074892;28;20031;-56
2023/07/25 03:48:58;;;;;;;7.95;4.25;;;17.20;99.90;;;;;;5075049;28;20035;-54
2023/07/25 03:51:44;;;;;;;5.07;3.97;;;17.30;99.90;;;;;;5073042;28;20481;-53
2023/07/25 03:54:29;;;;;;;5.68;3.85;;;17.30;99.90;;;;;;5072712;28;20036;-52
2023/07/25 03:57:15;;;;;;;6.10;4.30;;;17.30;99.90;;;;;;5074707;28;20103;-52
2023/07/25 04:00:02;;;;;;;6.75;3.97;;;17.40;99.90;;;;;;5072571;28;20112;-54
2023/07/25 04:02:47;;;;;;;7.97;4.50;;;17.20;99.90;;;;;;5060029;28;20048;-50
2023/07/25 04:05:33;;;;;;;4.78;4.05;;;17.30;99.90;;;;;;5074831;28;20519;-52
2023/07/25 04:08:19;;;;;;;5.53;3.97;;;17.30;99.90;;;;;;5073608;28;20510;-56
2023/07/25 04:11:05;;;;;;;6.38;4.30;;;17.40;99.90;;;;;;5074661;28;20025;-55
2023/07/25 04:13:51;;;;;;;6.05;4.45;;;17.20;99.90;;;;;;5073696;28;20033;-50
2023/07/25 04:16:37;;;;;;;7.65;4.40;;;17.20;99.90;;;;;;5058521;28;20043;-53
2023/07/25 04:19:23;;;;;;;7.60;4.32;;;17.10;99.90;;;;;;5074548;28;20025;-52
2023/07/25 04:22:09;;;;;;;7.72;4.22;;;17.10;99.90;;;;;;5074691;28;20024;-53
2023/07/25 04:24:55;;;;;;;6.68;4.43;;;17.10;99.90;;;;;;5073280;28;20067;-51
2023/07/25 04:27:42;;;;;;;8.27;4.28;;;17.10;99.90;;;;;;5073826;28;20493;-47
2023/07/25 04:30:28;;;;;;;7.57;4.13;;;17.20;99.90;;;;;;5074538;28;20031;-50
2023/07/25 04:33:14;;;;;;;6.13;4.40;;;17.30;99.90;;;;;;5072222;28;20017;-53
2023/07/25 04:36:00;;;;;;;6.43;4.32;;;17.30;99.90;;;;;;5072711;28;20032;-52
2023/07/25 04:38:46;;;;;;;5.07;4.40;;;17.20;99.90;;;;;;5074283;28;20029;-52
2023/07/25 04:41:32;;;;;;;6.30;4.18;;;17.20;99.90;;;;;;5074375;28;20025;-50
2023/07/25 04:44:17;;;;;;;10.25;5.07;;;17.30;99.90;;;;;;5074095;28;20031;-53
2023/07/25 04:47:04;;;;;;;7.60;4.50;;;17.20;99.90;;;;;;5058867;28;20047;-52
2023/07/25 04:49:50;;;;;;;5.72;4.60;;;17.30;99.90;;;;;;5073112;28;20105;-56
2023/07/25 04:52:36;;;;;;;7.95;4.95;;;17.10;99.90;;;;;;5074008;28;20475;-53
2023/07/25 04:55:22;;;;;;;10.23;5.57;;;17.00;99.90;;;;;;5073925;28;20033;-48
2023/07/25 04:58:08;;;;;;;9.68;6.03;;;16.80;99.90;;;;;;5073551;28;20025;-52
2023/07/25 05:00:54;;;;;;;11.68;5.97;;;16.90;99.90;;;;;;5073752;28;20028;-53
2023/07/25 05:03:39;;;;;;;8.73;5.50;;;16.80;99.90;;;;;;5073870;28;20063;-52
2023/07/25 05:06:25;;;;;;;7.38;5.10;;;16.70;99.90;;;;;;5073611;28;20033;-58
2023/07/25 05:09:12;;;;;;;7.70;5.13;;;16.70;99.90;;;;;;5073655;28;20028;-54
2023/07/25 05:11:58;;;;;;;5.80;4.90;;;16.70;99.90;;;;;;5072532;28;20570;-53
2023/07/25 05:14:44;;;;;;;10.15;5.30;;;16.70;99.90;;;;;;5072480;28;20039;-53
2023/07/25 05:17:30;;;;;;;11.05;4.93;;;16.60;99.90;;;;;;5059035;28;20032;-55
2023/07/25 05:20:16;;;;;;;7.55;4.72;;;16.70;99.90;;;;;;5073658;28;20031;-54
2023/07/25 05:23:02;;;;;;;6.68;5.07;;;16.70;99.90;;;;;;5073618;28;20028;-50
2023/07/25 05:25:48;;;;;;;13.73;5.63;;;16.90;99.90;;;;;;5057493;28;20116;-51
2023/07/25 05:28:34;;;;;;;5.65;5.15;;;16.90;99.90;;;;;;5071577;28;20093;-51
2023/07/25 05:31:20;;;;;;;9.52;5.75;;;17.00;99.90;;;;;;5073363;28;20399;-50
2023/07/25 05:34:06;;;;;;;11.82;5.15;;;16.80;99.90;;;;;;5072301;28;20033;-53
2023/07/25 05:36:51;;;;;;;8.63;5.28;;;16.70;99.90;;;;;;5072159;28;20029;-57
2023/07/25 05:39:38;;;;;;;8.13;5.78;;;16.70;99.90;;;;;;5073220;28;20025;-57
2023/07/25 05:42:23;;;;;;;17.10;5.43;;;16.70;99.90;;;;;;5073029;28;20020;-56
2023/07/25 05:45:10;;;;;;;9.07;4.70;;;16.70;99.90;;;;;;5070863;28;20025;-53
2023/07/25 05:47:56;;;;;;;8.02;4.85;;;16.70;99.90;;;;;;5071890;28;20099;-53
2023/07/25 05:50:42;;;;;;;9.82;5.07;;;16.80;99.90;;;;;;5058064;28;20028;-57
2023/07/25 05:53:28;;;;;;;7.55;4.70;;;16.80;99.90;;;;;;5057266;28;20059;-53
2023/07/25 05:56:14;;;;;;;10.65;4.80;;;16.80;99.90;;;;;;5072706;28;20027;-53
2023/07/25 05:58:59;;;;;;;8.13;4.95;;;17.00;99.90;;;;;;5071533;28;20056;-50
2023/07/25 06:01:46;;;;;;;8.80;4.32;;;17.10;99.90;;;;;;5071411;28;20035;-52
2023/07/25 06:04:32;;;;;;;9.40;4.85;;;17.30;99.90;;;;;;5072733;28;20025;-50
2023/07/25 06:07:18;;;;;;;9.68;5.25;;;17.10;99.90;;;;;;5056888;28;20122;-56
2023/07/25 06:10:05;;;;;;;11.95;4.90;;;17.20;99.90;;;;;;5072426;28;20032;-53
2023/07/25 06:12:51;;;;;;;9.55;5.07;;;17.20;99.90;;;;;;5058195;28;20059;-52
2023/07/25 06:15:37;;;;;;;6.63;4.50;;;17.30;99.90;;;;;;5058123;28;20021;-52
2023/07/25 06:18:23;;;;;;;8.43;4.95;;;17.40;99.90;;;;;;5071450;28;20028;-51
2023/07/25 06:21:09;;;;;;;7.40;4.80;;;17.20;99.90;;;;;;5072319;28;20028;-47
2023/07/25 06:23:55;;;;;;;7.07;5.00;;;17.40;99.90;;;;;;5073114;28;20473;-47
2023/07/25 06:26:42;;;;;;;12.77;5.57;;;17.20;99.90;;;;;;5070370;28;20115;-51
2023/07/25 06:29:28;;;;;;;8.50;4.70;;;17.40;99.90;;;;;;5057827;28;20072;-53
2023/07/25 06:32:14;;;;;;;8.93;4.35;;;17.70;99.90;;;;;;5072443;28;20181;-53
2023/07/25 06:35:00;;;;;;;9.25;4.88;;;17.70;99.90;;;;;;5071663;28;20539;-47
2023/07/25 06:37:45;;;;;;;7.10;5.30;;;17.80;99.90;;;;;;5071152;28;20051;-48
2023/07/25 06:40:31;;;;;;;6.75;4.60;;;18.00;99.90;;;;;;5071348;28;20024;-52
2023/07/25 06:43:17;;;;;;;7.75;4.15;;;17.90;99.90;;;;;;5071081;28;20021;-48
2023/07/25 06:46:03;;;;;;;7.13;4.25;;;18.10;99.90;;;;;;5057228;28;20025;-53
2023/07/25 06:48:49;;;;;;;9.77;4.53;;;17.90;99.90;;;;;;5072128;28;20032;-54
2023/07/25 06:51:35;;;;;;;7.15;4.28;;;18.10;99.90;;;;;;5055873;28;20031;-52
2023/07/25 06:54:22;;;;;;;6.60;4.25;;;18.10;99.90;;;;;;5055608;28;20020;-49
2023/07/25 06:57:07;;;;;;;7.43;4.38;;;18.20;99.90;;;;;;5070686;28;20017;-54
2023/07/25 06:59:53;;;;;;;6.15;4.30;;;18.30;99.90;;;;;;5060103;28;20040;-57
2023/07/25 07:02:39;;;;;;;10.27;4.65;;;18.20;99.90;;;;;;5076401;28;20640;-53
2023/07/25 07:05:26;;;;;;;8.90;4.25;;;18.40;99.90;;;;;;5075085;28;20029;-47
2023/07/25 07:08:12;;;;;;;7.75;4.53;;;18.30;99.90;;;;;;5060844;28;20489;-52
2023/07/25 07:10:58;;;;;;;7.57;4.03;;;18.30;99.90;;;;;;5076094;28;20071;-51
2023/07/25 07:13:44;;;;;;;7.75;4.30;;;18.30;99.90;;;;;;5075954;28;20451;-50
2023/07/25 07:16:30;;;;;;;7.60;4.57;;;18.50;99.90;;;;;;5075824;28;20496;-52
2023/07/25 07:19:16;;;;;;;8.77;4.50;;;18.60;99.90;;;;;;5074673;28;20033;-56
2023/07/25 07:22:02;;;;;;;8.93;4.82;;;18.60;99.90;;;;;;5075013;28;20027;-55
2023/07/25 07:24:48;;;;;;;6.70;4.28;;;18.70;99.90;;;;;;5073907;28;20443;-53
2023/07/25 07:27:34;;;;;;;5.93;4.20;;;18.70;99.90;;;;;;5073764;28;20120;-55
2023/07/25 07:30:20;;;;;;;8.63;4.85;;;18.90;99.90;;;;;;5074306;28;20033;-57
2023/07/25 07:33:06;;;;;;;8.48;4.97;;;18.90;99.90;;;;;;5075503;28;20024;-56
2023/07/25 07:35:52;;;;;;;6.93;4.88;;;18.70;99.90;;;;;;5074580;28;20029;-60
2023/07/25 07:38:38;;;;;;;6.57;4.53;;;18.70;99.90;;;;;;5073904;28;20078;-57
2023/07/25 07:41:24;;;;;;;9.57;4.22;;;18.40;99.90;;;;;;5078411;28;20549;-55
2023/07/25 07:44:10;;;;;;;10.60;5.20;;;18.60;99.90;;;;;;5076051;28;20033;-56
2023/07/25 07:46:56;;;;;;;6.85;4.82;;;18.80;99.90;;;;;;5059705;28;20039;-54
2023/07/25 07:49:42;;;;;;;7.65;5.00;;;19.00;99.90;;;;;;5074995;28;20021;-54
2023/07/25 07:52:28;;;;;;;9.13;4.38;;;19.00;99.90;;;;;;5075188;28;20024;-56
2023/07/25 07:55:15;;;;;;;10.07;5.00;;;19.00;99.90;;;;;;5075027;28;20522;-54
2023/07/25 07:58:02;;;;;;;10.73;4.43;;;19.00;99.90;;;;;;5072379;28;20397;-57
2023/07/25 08:00:48;;;;;;;6.95;4.38;;;19.00;99.30;;;;;;5073126;28;20080;-56
2023/07/25 08:03:33;;;;;;;5.88;4.28;;;18.90;99.20;;;;;;5074104;28;20412;-53
2023/07/25 08:06:19;;;;;;;5.75;4.32;;;18.80;99.50;;;;;;5074994;28;20032;-55
2023/07/25 08:09:07;;;;;;;8.20;4.72;;;18.90;99.10;;;;;;5073266;28;20036;-58
2023/07/25 08:11:53;;;;;;;5.90;3.88;;;18.70;99.10;;;;;;5059738;28;20032;-57
2023/07/25 08:14:39;;;;;;;6.78;4.50;;;18.60;98.90;;;;;;5060688;28;20029;-54
2023/07/25 08:17:25;;;;;;;6.85;4.40;;;18.60;99.30;;;;;;5073373;28;20031;-49
2023/07/25 08:20:13;;;;;;;9.63;4.55;;;18.70;99.40;;;;;;5073021;28;20052;-47
2023/07/25 08:22:59;;;;;;;7.85;4.88;;;18.80;99.10;;;;;;5074068;28;20056;-48
2023/07/25 08:25:45;;;;;;;6.45;5.00;;;18.80;99.20;;;;;;5072844;28;20039;-48
2023/07/25 08:28:30;;;;;;;6.43;5.38;;;18.70;99.40;;;;;;5072769;28;20393;-49
2023/07/25 08:31:16;;;;;;;8.95;4.88;;;18.60;99.40;;;;;;5072816;28;20401;-55
2023/07/25 08:34:02;;;;;;;8.32;4.63;;;18.60;99.80;;;;;;5074421;28;20017;-53
2023/07/25 08:36:48;;;;;;;7.63;4.60;;;18.70;99.60;;;;;;5072485;28;20028;-54
2023/07/25 08:39:34;;;;;;;26.38;14.95;;;18.70;99.90;;;;;;5073144;28;20031;-51
2023/07/25 08:42:23;;;;;;;12.90;6.82;;;18.80;99.50;;;;;;5074081;28;20056;-56
2023/07/25 08:45:10;;;;;;;7.22;4.93;;;19.00;99.00;;;;;;5074188;28;20033;-54
2023/07/25 08:48:02;;;;;;;10.13;5.20;;;19.00;98.70;;;;;;5059545;28;20029;-52
2023/07/25 08:50:51;;;;;;;7.15;4.50;;;19.10;98.40;;;;;;5073555;28;20021;-50
2023/07/25 08:53:47;;;;;;;7.53;4.53;;;19.20;97.80;;;;;;5072747;28;20028;-54
2023/07/25 08:56:34;;;;;;;6.70;4.97;;;19.30;97.90;;;;;;5072620;28;20515;-52
2023/07/25 08:59:22;;;;;;;6.85;4.72;;;19.30;98.10;;;;;;5073316;28;20024;-51
2023/07/25 09:02:10;;;;;;;7.38;5.07;;;19.30;98.60;;;;;;5073411;28;20545;-51
2023/07/25 09:04:56;;;;;;;12.07;6.00;;;19.60;98.30;;;;;;5074132;28;20086;-51
2023/07/25 09:07:42;;;;;;;8.40;4.80;;;19.80;98.00;;;;;;5072240;28;20060;-53
2023/07/25 09:10:28;;;;;;;9.93;5.22;;;19.90;97.60;;;;;;5072187;28;20024;-54
2023/07/25 09:13:14;;;;;;;10.80;5.50;;;19.80;97.80;;;;;;5071891;28;20020;-50
2023/07/25 09:16:00;;;;;;;5.70;4.20;;;19.90;97.90;;;;;;5073722;28;20042;-53
2023/07/25 09:18:46;;;;;;;13.57;4.65;;;19.90;97.80;;;;;;5074288;28;20027;-53
2023/07/25 09:21:32;;;;;;;9.38;5.30;;;19.80;97.10;;;;;;5072838;28;20036;-52
2023/07/25 09:24:18;;;;;;;8.70;5.05;;;19.70;97.50;;;;;;5068405;28;20025;-52
2023/07/25 09:27:15;;;;;;;5.82;5.07;;;19.50;97.30;;;;;;5056207;28;20060;-51
2023/07/25 09:30:09;;;;;;;7.32;5.15;;;19.40;97.50;;;;;;5072604;28;20031;-46
2023/07/25 09:32:55;;;;;;;5.78;4.70;;;19.40;97.70;;;;;;5069497;28;20456;-49
2023/07/25 09:35:45;;;;;;;5.60;4.47;;;19.40;97.90;;;;;;5062931;28;20040;-47
2023/07/25 09:38:33;;;;;;;5.50;5.00;;;19.70;97.30;;;;;;5059730;28;20111;-48
2023/07/25 09:41:20;;;;;;;7.85;5.32;;;19.70;97.50;;;;;;5046985;28;20024;-54
2023/07/25 09:44:06;;;;;;;9.73;5.40;;;19.80;97.10;;;;;;5063459;28;20032;-55
2023/07/25 09:46:55;;;;;;;8.38;5.10;;;19.90;97.00;;;;;;5063229;28;20108;-53
2023/07/25 09:49:48;;;;;;;7.03;5.15;;;20.00;96.80;;;;;;5061445;28;20025;-50
2023/07/25 09:52:39;;;;;;;7.50;4.65;;;20.10;97.00;;;;;;5063181;28;20099;-52
2023/07/25 09:55:25;;;;;;;30.52;21.65;;;20.20;97.00;;;;;;5045393;28;20021;-50
2023/07/25 09:58:12;;;;;;;9.05;5.72;;;20.40;97.00;;;;;;5058213;28;20052;-55
2023/07/25 10:00:59;;;;;;;10.00;4.65;;;20.20;96.20;;;;;;5060728;28;20027;-50
2023/07/25 10:03:46;;;;;;;5.03;4.47;;;20.20;96.20;;;;;;5063362;28;20388;-52
2023/07/25 10:06:35;;;;;;;5.93;4.30;;;20.20;96.20;;;;;;5061761;28;20488;-55
2023/07/25 10:09:21;;;;;;;8.18;4.50;;;20.20;95.90;;;;;;5060588;28;20600;-48
2023/07/25 10:12:08;;;;;;;6.45;4.45;;;20.30;95.80;;;;;;5052882;28;20037;-53
2023/07/25 10:14:55;;;;;;;7.38;4.40;;;20.00;95.90;;;;;;5064607;28;20133;-55
2023/07/25 10:17:41;;;;;;;5.95;4.38;;;20.10;95.70;;;;;;5070627;28;20107;-52
2023/07/25 10:20:27;;;;;;;10.10;4.70;;;19.90;95.70;;;;;;5071919;28;20417;-54
2023/07/25 10:23:14;;;;;;;5.35;4.35;;;19.80;95.70;;;;;;5070285;28;20051;-55
2023/07/25 10:26:14;;;;;;;6.95;4.78;;;19.50;96.30;;;;;;5053749;28;20021;-52
2023/07/25 10:29:02;;;;;;;7.18;4.28;;;19.40;96.60;;;;;;5041460;28;20041;-52
2023/07/25 10:31:51;;;;;;;9.63;4.95;;;19.30;96.60;;;;;;5051353;28;20052;-50
2023/07/25 10:34:59;;;;;;;6.85;4.30;;;19.20;96.60;;;;;;5050452;28;20084;-50
2023/07/25 10:37:45;;;;;;;6.22;4.00;;;19.30;96.70;;;;;;5050535;28;20498;-53
2023/07/25 10:40:53;;;;;;;7.30;4.75;;;19.40;96.60;;;;;;5050313;28;20033;-49
2023/07/25 10:43:46;;;;;;;10.80;4.88;;;19.30;97.00;;;;;;5050678;28;20048;-53
2023/07/25 10:46:33;;;;;;;7.45;4.82;;;19.30;96.90;;;;;;5050530;28;20025;-52
2023/07/25 10:49:19;;;;;;;5.82;3.65;;;19.10;97.00;;;;;;5049706;28;20096;-51
2023/07/25 10:52:05;;;;;;;4.80;3.92;;;19.10;96.50;;;;;;5050005;28;20056;-49
2023/07/25 10:55:04;;;;;;;7.75;4.43;;;19.20;96.20;;;;;;5050871;28;20031;-52
2023/07/25 10:58:09;;;;;;;6.43;4.07;;;19.30;96.00;;;;;;5049759;28;20028;-52
2023/07/25 11:00:55;;;;;;;6.20;4.45;;;19.10;96.70;;;;;;5050820;28;20041;-55
2023/07/25 11:03:41;;;;;;;7.15;3.90;;;19.20;96.80;;;;;;5050810;28;20037;-53
2023/07/25 11:06:36;;;;;;;6.82;3.95;;;19.30;96.70;;;;;;5050055;28;20029;-55
2023/07/25 11:09:23;;;;;;;9.57;4.53;;;19.20;96.90;;;;;;5049187;28;20035;-51
2023/07/25 11:12:11;;;;;;;5.25;4.22;;;19.40;96.90;;;;;;5050958;28;20615;-50
2023/07/25 11:14:57;;;;;;;6.63;3.83;;;19.40;96.70;;;;;;5049870;28;20032;-52
2023/07/25 11:17:43;;;;;;;8.65;3.90;;;19.50;97.10;;;;;;5050786;28;20025;-54
2023/07/25 11:20:29;;;;;;;5.03;3.63;;;19.60;96.30;;;;;;5050519;28;20116;-53
2023/07/25 11:23:20;;;;;;;5.82;3.85;;;19.80;95.90;;;;;;5050451;28;20035;-55
2023/07/25 11:26:07;;;;;;;4.95;3.72;;;19.70;96.30;;;;;;5044517;28;20033;-54
2023/07/25 11:28:53;;;;;;;9.45;3.80;;;19.70;96.30;;;;;;5050400;28;20048;-52
2023/07/25 11:31:48;;;;;;;5.13;3.22;;;19.80;96.10;;;;;;5050093;28;20029;-53
2023/07/25 11:34:34;;;;;;;3.92;3.13;;;19.80;95.90;;;;;;5051011;28;20048;-56
2023/07/25 11:37:21;;;;;;;4.45;3.65;;;19.90;96.10;;;;;;5050100;28;20022;-54
2023/07/25 11:40:15;;;;;;;4.97;3.03;;;20.10;95.80;;;;;;5051263;28;20029;-49
2023/07/25 11:43:01;;;;;;;4.68;3.30;;;20.10;94.80;;;;;;5050310;28;20094;-54
2023/07/25 11:45:48;;;;;;;5.07;3.05;;;20.10;95.00;;;;;;5055895;28;20068;-49
2023/07/25 11:48:34;;;;;;;3.85;3.00;;;20.20;94.60;;;;;;5053199;28;20450;-54
2023/07/25 11:51:21;;;;;;;5.93;3.50;;;20.40;94.80;;;;;;5054315;28;20513;-54
2023/07/25 11:54:08;;;;;;;6.82;3.10;;;20.40;94.40;;;;;;5053620;28;20108;-55
2023/07/25 11:56:54;;;;;;;5.78;3.30;;;20.60;93.80;;;;;;5054355;28;20440;-52
2023/07/25 11:59:40;;;;;;;4.90;3.28;;;20.40;94.00;;;;;;5053646;28;20025;-48
2023/07/25 12:02:27;;;;;;;6.25;4.15;;;20.30;94.50;;;;;;5053351;28;20076;-56
2023/07/25 12:05:28;;;;;;;6.68;3.92;;;20.40;94.20;;;;;;5040042;28;20116;-52
2023/07/25 12:08:32;;;;;;;5.60;3.75;;;20.30;93.90;;;;;;5049362;28;20029;-55
2023/07/25 12:11:18;;;;;;;5.93;3.50;;;20.20;94.10;;;;;;5049523;28;20025;-54
2023/07/25 12:14:12;;;;;;;5.60;3.80;;;20.20;94.20;;;;;;5054032;28;20068;-49
2023/07/25 12:17:02;;;;;;;7.47;3.85;;;20.50;94.00;;;;;;5053228;28;20402;-54
2023/07/25 12:19:56;;;;;;;4.55;3.35;;;20.60;93.60;;;;;;5052900;28;20044;-54
2023/07/25 12:22:43;;;;;;;5.90;3.60;;;20.70;93.30;;;;;;5052382;28;20017;-48
2023/07/25 12:25:29;;;;;;;4.55;3.75;;;20.70;93.50;;;;;;5054048;28;20032;-53
2023/07/25 12:28:15;;;;;;;5.63;3.75;;;20.80;93.60;;;;;;5052083;28;20040;-50
2023/07/25 12:31:01;;;;;;;6.38;3.90;;;20.70;93.80;;;;;;5053260;28;20033;-53
2023/07/25 12:33:49;;;;;;;6.57;4.22;;;20.70;93.80;;;;;;5053478;28;20029;-52
2023/07/25 12:36:36;;;;;;;7.95;4.43;;;20.60;93.80;;;;;;5051637;28;20066;-50
2023/07/25 12:39:22;;;;;;;6.07;4.45;;;20.70;93.80;;;;;;5051973;28;20490;-52
2023/07/25 12:42:08;;;;;;;7.43;4.63;;;20.60;94.10;;;;;;5053711;28;20079;-57
2023/07/25 12:44:58;;;;;;;6.75;4.75;;;20.50;94.30;;;;;;5053601;28;20033;-56
2023/07/25 12:47:43;;;;;;;9.57;5.43;;;20.40;94.80;;;;;;5038909;28;20116;-53
2023/07/25 12:50:30;;;;;;;9.13;5.13;;;20.00;96.50;;;;;;5052082;28;20111;-53
2023/07/25 12:53:16;;;;;;;11.15;5.28;;;19.60;97.80;;;;;;5038479;28;20018;-59
2023/07/25 12:56:02;;;;;;;5.82;5.20;;;19.50;98.10;;;;;;5051251;28;20112;-53
2023/07/25 12:58:48;;;;;;;10.38;6.15;;;19.40;98.30;;;;;;5043412;28;20088;-56
2023/07/25 13:01:34;;;;;;;9.18;5.50;;;19.20;98.40;;;;;;5040070;28;20060;-50
2023/07/25 13:04:20;;;;;;;10.35;5.50;;;19.20;98.20;;;;;;5045356;28;20104;-53
2023/07/25 13:07:06;;;;;;;9.13;5.93;;;19.40;98.40;;;;;;5044377;28;20029;-51
2023/07/25 13:09:56;;;;;;;8.07;5.47;;;19.50;97.90;;;;;;5029859;28;20040;-48
2023/07/25 13:12:41;;;;;;;8.18;5.25;;;19.70;97.40;;;;;;5035167;28;20524;-47
2023/07/25 13:15:27;;;;;;;7.28;4.63;;;19.70;96.90;;;;;;5052026;28;20486;-53
2023/07/25 13:18:13;;;;;;;6.32;4.40;;;19.90;96.20;;;;;;5052665;28;20025;-54
2023/07/25 13:20:59;;;;;;;4.65;3.70;;;19.80;96.10;;;;;;5053318;28;20025;-53
2023/07/25 13:23:45;;;;;;;5.82;3.90;;;20.00;94.60;;;;;;5052177;28;20139;-54
2023/07/25 13:26:31;;;;;;;5.93;3.67;;;20.00;94.20;;;;;;5051782;28;20033;-56
2023/07/25 13:29:17;;;;;;;4.80;3.50;;;19.70;94.30;;;;;;5052181;28;20040;-54
2023/07/25 13:32:03;;;;;;;7.18;3.97;;;19.50;95.00;;;;;;5050345;28;20068;-51
2023/07/25 13:34:49;;;;;;;6.63;3.42;;;19.80;94.30;;;;;;5038450;28;20021;-57
2023/07/25 13:37:35;;;;;;;5.65;3.00;;;19.60;94.00;;;;;;5050997;28;20032;-54
2023/07/25 13:40:21;;;;;;;3.75;2.72;;;19.60;93.90;;;;;;5049747;28;20025;-56
2023/07/25 13:43:07;;;;;;;6.68;3.05;;;19.60;93.30;;;;;;5038300;28;20083;-52
2023/07/25 13:45:53;;;;;;;5.35;3.22;;;19.60;93.60;;;;;;5052526;28;20033;-53
2023/07/25 13:48:39;;;;;;;5.55;3.90;;;19.70;93.80;;;;;;5051490;28;20410;-51
2023/07/25 13:51:25;;;;;;;6.35;3.70;;;19.80;94.00;;;;;;5052825;28;20025;-51
2023/07/25 13:54:11;;;;;;;7.93;3.80;;;19.70;93.60;;;;;;5051299;28;20541;-53
2023/07/25 13:56:57;;;;;;;6.75;4.13;;;19.70;93.10;;;;;;5051411;28;20107;-53
2023/07/25 13:59:43;;;;;;;5.70;4.05;;;19.70;93.00;;;;;;5052031;28;20030;-49
2023/07/25 14:02:29;;;;;;;9.05;3.95;;;19.80;93.30;;;;;;5051906;28;20063;-53
2023/07/25 14:05:15;;;;;;;7.40;4.40;;;19.70;93.50;;;;;;5050399;28;20033;-48
2023/07/25 14:08:02;;;;;;;8.77;3.67;;;19.70;94.00;;;;;;5051886;28;20033;-50
2023/07/25 14:10:48;;;;;;;5.70;3.97;;;19.60;93.90;;;;;;5048295;28;20084;-51
2023/07/25 14:13:33;;;;;;;5.13;4.03;;;19.50;93.60;;;;;;5042282;28;20398;-52
2023/07/25 14:16:19;;;;;;;5.22;3.67;;;19.60;94.10;;;;;;5051229;28;20021;-52
2023/07/25 14:19:05;;;;;;;6.32;4.60;;;19.40;94.00;;;;;;5050983;28;20120;-53
2023/07/25 14:21:51;;;;;;;7.53;4.65;;;19.30;94.30;;;;;;5051661;28;20025;-52
2023/07/25 14:24:37;;;;;;;5.93;4.00;;;19.40;94.40;;;;;;5036811;28;20052;-53
2023/07/25 14:27:23;;;;;;;8.35;4.60;;;19.40;94.40;;;;;;5035945;28;20036;-52